Accueil
METAR-TAF:

METAR-TAF

Aéroports :

Gulkana, Alaska, États-Unis

latitude: 62-09N, longitude: 145-27W, altitude: 481 m

Observation

Le bulletin a été fait il y a 41 minutes, à 20:53 UTC
Vent 14 kt de sud/sud-est
Température 3°C
Humidité 75%
Pression 992 hPa
Visibilité: 16.1 km
Ciel clair

METAR: PAGK 202053Z AUTO 16014KT 10SM CLR 03/M01 A2929 RMK AO2 PK WND 15026/2000 SLP936 T00331006 53001 TSNO $

Heure: 12:34 (21:34 UTC)

Prévision

Le bulletin a été fait il y a 3 heures et 49 minutes, à 17:45 UTC
Prévision valable du 20 à 18 UTC au 21 à 18 UTC
Vent 13 kt de sud/sud-est
Visibilité: 10 km
Ciel couvert à une hauteur de 10000 ft
A partir de 21 à 0000 UTC
Vent 15 kt de sud/sud-est avec des rafales jusqu'à 25 kt
Visibilité: 10 km
Nuages épars à une hauteur de 5000 ft
Nuages fragmentés à une hauteur de 10000 ft

TAF: PAGK 201745Z 2018/2118 16013KT P6SM OVC100 FM210000 16015G25KT P6SM SCT050 BKN100

Observations et prévisions météorologiques de plus de 4000 aéroports (messages METAR et TAF).

Les stations disponibles sont représentées par des disques jaunes et rouges sur la carte.

Passer la souris dessus pour voir le nom de la station.

Cliquer dessus pour voir les observations et prévisions météorologiques.

Pour changer de carte: cliquez sur les boutons verts avec une croix noire pour zoomer, sur le bouton vert avec un tiret pour effectuer un zoom arrière, ou sur les flèches vertes pour les cartes adjacentes.


METAR-TAF: